Time;durP1;ratioP1;P1;durP2;ratioP2;P2;SDS_P1;SDS_P2;PMS_P1;PMS_P2;Temp;Humidity;BMP_temperature;BMP_pressure;BME280_temperature;BME280_humidity;BME280_pressure;Samples;Min_cycle;Max_cycle;Signal;HPM_P1;HPM_P2
2022/03/11 00:00:56;;;;;;;14.55;10.27;;;7.40;49.20;;;;;;6277595;22;20023;-88
2022/03/11 00:03:22;;;;;;;13.30;9.38;;;7.30;48.80;;;;;;6277312;22;20649;-87
2022/03/11 00:05:48;;;;;;;12.88;9.40;;;7.20;48.80;;;;;;6250568;22;20012;-87
2022/03/11 00:08:14;;;;;;;14.82;10.25;;;7.20;48.80;;;;;;6277746;22;20019;-88
2022/03/11 00:10:40;;;;;;;13.93;9.60;;;7.20;48.80;;;;;;6279140;22;20030;-87
2022/03/11 00:13:06;;;;;;;15.68;10.27;;;7.20;48.90;;;;;;6279725;22;20096;-86
2022/03/11 00:15:32;;;;;;;14.05;10.55;;;7.10;48.90;;;;;;6279640;22;20018;-87
2022/03/11 00:17:58;;;;;;;13.60;10.05;;;7.10;48.90;;;;;;6252871;22;20047;-88
2022/03/11 00:20:24;;;;;;;14.15;10.20;;;7.10;48.90;;;;;;6279921;22;20012;-88
2022/03/11 00:22:51;;;;;;;15.85;10.25;;;7.10;49.30;;;;;;6252013;22;20051;-87
2022/03/11 00:25:18;;;;;;;14.88;9.82;;;7.10;49.10;;;;;;6251873;22;20019;-88
2022/03/11 00:27:44;;;;;;;14.98;10.20;;;7.00;49.00;;;;;;6251539;22;20016;-87
2022/03/11 00:30:10;;;;;;;15.00;9.65;;;7.00;49.00;;;;;;6226492;22;20024;-89
2022/03/11 00:32:36;;;;;;;20.85;10.52;;;7.00;49.20;;;;;;6279586;22;20027;-87
2022/03/11 00:35:04;;;;;;;15.05;10.15;;;7.00;49.20;;;;;;6252301;22;20024;-87
2022/03/11 00:37:29;;;;;;;17.90;10.07;;;6.90;49.30;;;;;;6279591;22;20011;-87
2022/03/11 00:39:55;;;;;;;15.85;10.73;;;6.90;49.40;;;;;;6252173;22;20375;-87
2022/03/11 00:42:21;;;;;;;18.52;10.43;;;6.90;49.50;;;;;;6252120;22;20091;-87
2022/03/11 00:44:46;;;;;;;14.23;10.43;;;6.80;49.50;;;;;;6251999;22;20023;-87
2022/03/11 00:47:12;;;;;;;13.57;9.68;;;6.80;49.60;;;;;;6279907;22;20019;-87
2022/03/11 00:49:38;;;;;;;16.33;9.93;;;6.80;49.70;;;;;;6280359;22;20022;-87
2022/03/11 00:52:04;;;;;;;15.70;9.98;;;6.70;49.70;;;;;;6254300;22;20018;-87
2022/03/11 00:54:30;;;;;;;14.98;9.68;;;6.70;49.90;;;;;;6254049;22;20049;-87
2022/03/11 00:56:56;;;;;;;15.77;10.95;;;6.60;50.00;;;;;;6279080;22;20090;-87
2022/03/11 00:59:22;;;;;;;15.35;9.98;;;6.70;50.30;;;;;;6279332;22;20116;-87
2022/03/11 01:01:47;;;;;;;14.15;10.00;;;6.50;50.30;;;;;;6251668;22;20047;-87
2022/03/11 01:04:13;;;;;;;14.52;9.90;;;6.50;50.40;;;;;;6279327;22;20023;-87
2022/03/11 01:06:40;;;;;;;12.95;9.80;;;6.50;50.50;;;;;;6278859;22;20331;-86
2022/03/11 01:09:06;;;;;;;13.93;9.38;;;6.40;50.60;;;;;;6251813;22;20062;-88
2022/03/11 01:11:32;;;;;;;13.82;10.70;;;6.50;50.90;;;;;;6278567;22;20115;-87
2022/03/11 01:13:58;;;;;;;15.88;10.93;;;6.40;50.80;;;;;;6252145;22;20020;-87
2022/03/11 01:16:23;;;;;;;16.10;9.48;;;6.30;50.90;;;;;;6251867;22;20022;-85
2022/03/11 01:18:50;;;;;;;14.52;10.55;;;6.30;51.00;;;;;;6251496;22;20545;-87
2022/03/11 01:21:15;;;;;;;15.73;10.77;;;6.40;51.10;;;;;;6278742;22;20014;-87
2022/03/11 01:23:41;;;;;;;16.70;10.55;;;6.30;51.20;;;;;;6225739;22;20019;-86
2022/03/11 01:26:07;;;;;;;12.93;9.15;;;6.20;51.30;;;;;;6225914;22;20054;-87
2022/03/11 01:28:33;;;;;;;14.23;9.68;;;6.40;51.50;;;;;;6278595;22;20019;-87
2022/03/11 01:30:59;;;;;;;13.90;9.80;;;6.40;51.60;;;;;;6278732;22;20026;-86
2022/03/11 01:33:24;;;;;;;15.30;10.32;;;6.10;51.70;;;;;;6278869;22;20019;-86
2022/03/11 01:35:50;;;;;;;14.00;9.88;;;6.10;51.70;;;;;;6226860;22;20034;-87
2022/03/11 01:38:16;;;;;;;15.85;10.48;;;6.10;52.00;;;;;;6281547;22;20106;-87
2022/03/11 01:40:42;;;;;;;13.15;10.35;;;6.00;52.10;;;;;;6255626;22;20062;-87
2022/03/11 01:43:18;;;;;;;16.15;10.70;;;6.00;52.20;;;;;;6280404;22;20464;-87
2022/03/11 01:45:44;;;;;;;15.05;11.07;;;6.00;52.30;;;;;;6252613;22;20015;-86
2022/03/11 01:48:11;;;;;;;15.52;10.25;;;5.90;52.30;;;;;;6251985;22;20019;-86
2022/03/11 01:50:41;;;;;;;12.98;9.55;;;6.00;52.60;;;;;;6251651;22;20343;-87
2022/03/11 01:53:09;;;;;;;16.95;11.25;;;5.90;52.70;;;;;;6279068;22;20016;-87
2022/03/11 01:55:36;;;;;;;18.20;11.55;;;5.90;52.70;;;;;;6251006;22;20027;-87
2022/03/11 01:58:03;;;;;;;16.38;11.68;;;5.90;52.90;;;;;;6278756;22;20012;-87
2022/03/11 02:00:30;;;;;;;15.52;10.65;;;5.80;53.00;;;;;;6278624;22;20008;-88
2022/03/11 02:02:56;;;;;;;14.80;10.77;;;5.80;53.00;;;;;;6251397;22;20011;-86
2022/03/11 02:05:23;;;;;;;14.95;10.32;;;5.80;53.10;;;;;;6278373;22;20072;-87
2022/03/11 02:07:49;;;;;;;17.00;11.57;;;5.80;53.10;;;;;;6278372;22;20023;-86
2022/03/11 02:10:16;;;;;;;16.67;10.57;;;5.70;53.20;;;;;;6278616;22;20014;-86
2022/03/11 02:12:42;;;;;;;13.82;10.13;;;5.70;53.70;;;;;;6278167;22;20043;-86
2022/03/11 02:15:09;;;;;;;19.00;10.93;;;5.90;53.50;;;;;;6251049;22;20034;-87
2022/03/11 02:17:35;;;;;;;15.20;10.40;;;5.70;53.50;;;;;;6250459;22;20031;-86
2022/03/11 02:20:01;;;;;;;13.85;9.77;;;5.70;53.50;;;;;;6250542;22;20106;-86
2022/03/11 02:22:29;;;;;;;14.27;9.65;;;5.60;53.60;;;;;;6277897;22;20026;-86
2022/03/11 02:24:55;;;;;;;14.27;9.80;;;5.70;53.60;;;;;;6250872;22;20019;-86
2022/03/11 02:27:22;;;;;;;15.10;10.07;;;5.60;53.80;;;;;;6250363;22;20054;-86
2022/03/11 02:29:47;;;;;;;17.50;10.88;;;5.60;53.70;;;;;;6278078;22;20016;-86
2022/03/11 02:32:13;;;;;;;13.45;10.20;;;5.60;53.90;;;;;;6277848;22;20097;-85
2022/03/11 02:34:40;;;;;;;17.55;10.93;;;5.60;53.90;;;;;;6250366;22;20015;-86
2022/03/11 02:37:06;;;;;;;15.20;9.80;;;5.50;54.00;;;;;;6250770;22;20020;-86
2022/03/11 02:39:32;;;;;;;12.95;9.07;;;5.60;54.10;;;;;;6250521;22;20015;-86
2022/03/11 02:42:00;;;;;;;17.58;9.90;;;5.50;54.10;;;;;;6278110;22;20320;-86
2022/03/11 02:44:29;;;;;;;14.05;9.40;;;5.50;54.20;;;;;;6250194;22;20023;-86
2022/03/11 02:46:55;;;;;;;14.85;9.75;;;5.50;54.20;;;;;;6278370;22;20054;-86
2022/03/11 02:49:21;;;;;;;17.33;9.48;;;5.50;54.40;;;;;;6249829;22;20019;-86
2022/03/11 02:51:46;;;;;;;16.17;9.00;;;5.50;54.50;;;;;;6278059;22;20027;-87
2022/03/11 02:54:12;;;;;;;16.20;9.75;;;5.50;54.60;;;;;;6277956;22;20341;-86
2022/03/11 02:56:38;;;;;;;13.60;9.20;;;5.40;54.70;;;;;;6277984;22;20015;-86
2022/03/11 02:59:03;;;;;;;13.93;8.93;;;5.40;54.80;;;;;;6250560;22;20016;-85
2022/03/11 03:01:29;;;;;;;14.60;9.63;;;5.40;54.90;;;;;;6278183;22;20015;-86
2022/03/11 03:03:54;;;;;;;15.60;9.10;;;5.40;55.00;;;;;;6277507;22;20016;-86
2022/03/11 03:06:20;;;;;;;15.30;9.70;;;5.40;55.10;;;;;;6277976;22;20019;-87
2022/03/11 03:08:46;;;;;;;16.67;9.05;;;5.30;55.20;;;;;;6278069;22;20020;-87
2022/03/11 03:11:11;;;;;;;14.77;11.40;;;5.30;55.50;;;;;;6277638;22;20012;-86
2022/03/11 03:13:37;;;;;;;14.98;9.27;;;5.30;55.40;;;;;;6277857;22;20022;-86
2022/03/11 03:16:03;;;;;;;16.15;9.63;;;5.30;55.60;;;;;;6277516;22;20026;-87
2022/03/11 03:18:30;;;;;;;15.65;9.82;;;5.30;55.60;;;;;;6250925;22;20161;-85
2022/03/11 03:20:55;;;;;;;16.77;10.90;;;5.20;55.70;;;;;;6277644;22;20008;-87
2022/03/11 03:23:24;;;;;;;17.80;10.23;;;5.20;55.70;;;;;;6278084;22;20016;-86
2022/03/11 03:25:50;;;;;;;15.00;9.80;;;5.20;55.80;;;;;;6277947;22;20083;-87
2022/03/11 03:28:16;;;;;;;15.68;10.40;;;5.20;56.00;;;;;;6250490;22;20066;-86
2022/03/11 03:30:41;;;;;;;16.50;9.98;;;5.20;56.20;;;;;;6250690;22;20426;-86
2022/03/11 03:33:07;;;;;;;17.77;10.93;;;5.10;56.20;;;;;;6278850;22;20022;-86
2022/03/11 03:35:34;;;;;;;16.10;10.32;;;5.10;56.20;;;;;;6276833;22;20336;-87
2022/03/11 03:37:59;;;;;;;22.40;10.45;;;5.10;56.40;;;;;;6278629;22;20328;-87
2022/03/11 03:40:25;;;;;;;14.85;10.23;;;5.10;56.40;;;;;;6277648;22;20016;-87
2022/03/11 03:42:51;;;;;;;16.35;10.77;;;5.10;56.40;;;;;;6251334;22;20069;-87
2022/03/11 03:45:17;;;;;;;15.93;10.73;;;5.10;56.60;;;;;;6255904;22;20054;-86
2022/03/11 03:47:42;;;;;;;13.85;9.82;;;5.10;56.60;;;;;;6260266;22;20031;-87
2022/03/11 03:50:09;;;;;;;18.83;10.52;;;5.00;56.70;;;;;;6261717;22;20015;-86
2022/03/11 03:52:34;;;;;;;17.38;11.13;;;5.00;56.70;;;;;;6291121;22;20011;-86
2022/03/11 03:55:00;;;;;;;16.75;10.43;;;5.00;56.80;;;;;;6290803;22;20027;-86
2022/03/11 03:57:27;;;;;;;18.38;12.02;;;5.00;56.80;;;;;;6264804;22;20018;-86
2022/03/11 03:59:53;;;;;;;16.85;11.40;;;5.00;56.90;;;;;;6292263;22;20027;-87
2022/03/11 04:02:19;;;;;;;17.83;11.60;;;5.00;57.00;;;;;;6266437;22;20008;-87
2022/03/11 04:04:45;;;;;;;15.40;10.63;;;5.00;57.00;;;;;;6266760;22;20030;-86
2022/03/11 04:07:11;;;;;;;17.33;11.15;;;5.00;57.10;;;;;;6295692;22;20320;-86
2022/03/11 04:09:37;;;;;;;16.38;11.10;;;5.00;57.10;;;;;;6243450;22;20067;-85
2022/03/11 04:12:03;;;;;;;17.95;11.25;;;5.00;57.10;;;;;;6268781;22;20016;-87
2022/03/11 04:14:28;;;;;;;17.33;11.35;;;5.00;57.20;;;;;;6270817;22;20015;-87
2022/03/11 04:16:55;;;;;;;19.15;12.90;;;4.90;57.20;;;;;;6295906;22;20027;-88
2022/03/11 04:19:20;;;;;;;18.65;11.82;;;4.90;57.10;;;;;;6289123;22;20332;-87
2022/03/11 04:21:46;;;;;;;15.88;11.75;;;4.90;57.20;;;;;;6255642;22;20028;-87
2022/03/11 04:24:14;;;;;;;17.40;12.00;;;4.90;57.20;;;;;;6253209;22;20102;-86
2022/03/11 04:26:55;;;;;;;19.52;13.95;;;4.80;57.30;;;;;;6252306;22;20017;-87
2022/03/11 04:29:23;;;;;;;18.08;11.35;;;4.90;57.40;;;;;;6252220;22;20019;-87
2022/03/11 04:31:49;;;;;;;18.15;11.88;;;4.80;57.30;;;;;;6251783;22;20051;-87
2022/03/11 04:34:14;;;;;;;20.67;12.30;;;4.80;57.40;;;;;;6228243;22;20020;-87
2022/03/11 04:36:40;;;;;;;18.90;11.75;;;4.80;57.50;;;;;;6279941;22;20019;-87
2022/03/11 04:39:07;;;;;;;16.60;11.70;;;4.70;57.30;;;;;;6278047;22;20371;-86
2022/03/11 04:41:34;;;;;;;20.55;12.82;;;4.80;57.40;;;;;;6277156;22;20016;-87
2022/03/11 04:44:00;;;;;;;17.40;12.10;;;4.70;57.60;;;;;;6250127;22;20019;-87
2022/03/11 04:46:26;;;;;;;17.17;11.90;;;4.70;57.50;;;;;;6249915;22;20061;-86
2022/03/11 04:48:51;;;;;;;19.35;12.70;;;4.70;57.70;;;;;;6277849;22;20012;-87
2022/03/11 04:51:20;;;;;;;18.75;12.82;;;4.70;57.80;;;;;;6277309;22;20008;-87
2022/03/11 04:53:46;;;;;;;19.42;12.93;;;4.60;57.70;;;;;;6277745;22;20551;-87
2022/03/11 04:56:12;;;;;;;20.70;12.40;;;4.60;57.90;;;;;;6281905;22;20003;-88
2022/03/11 04:58:56;;;;;;;20.83;13.20;;;4.60;57.80;;;;;;6282824;22;20016;-87
2022/03/11 05:01:21;;;;;;;18.38;12.18;;;4.60;58.00;;;;;;6251886;22;20012;-86
2022/03/11 05:03:47;;;;;;;20.13;13.48;;;4.50;58.00;;;;;;6279556;22;20042;-87
2022/03/11 05:06:13;;;;;;;21.20;14.05;;;4.50;58.20;;;;;;6251530;22;20468;-86
2022/03/11 05:08:38;;;;;;;18.15;12.43;;;4.60;58.30;;;;;;6252066;22;20027;-86
2022/03/11 05:11:05;;;;;;;19.75;12.57;;;4.40;58.20;;;;;;6251591;22;20038;-87
2022/03/11 05:13:30;;;;;;;20.73;12.93;;;4.40;58.30;;;;;;6251306;22;20020;-87
2022/03/11 05:15:56;;;;;;;21.42;13.15;;;4.40;58.30;;;;;;6279479;22;20023;-87
2022/03/11 05:18:22;;;;;;;18.48;12.75;;;4.40;58.30;;;;;;6279931;22;20027;-87
2022/03/11 05:20:47;;;;;;;19.92;13.07;;;4.30;58.80;;;;;;6270120;22;19996;-85
2022/03/11 05:23:13;;;;;;;18.13;13.15;;;4.30;58.50;;;;;;6305684;22;20051;-83
2022/03/11 05:25:40;;;;;;;22.88;13.55;;;4.30;58.70;;;;;;6305059;22;20012;-85
2022/03/11 05:28:05;;;;;;;19.83;12.85;;;4.30;58.70;;;;;;6301236;22;20034;-87
2022/03/11 05:30:31;;;;;;;23.27;13.07;;;4.30;58.80;;;;;;6269972;22;20012;-87
2022/03/11 05:32:56;;;;;;;20.08;13.10;;;4.30;58.70;;;;;;6297284;22;20086;-88
2022/03/11 05:35:22;;;;;;;21.02;13.77;;;4.30;58.80;;;;;;6254783;22;20149;-87
2022/03/11 05:37:48;;;;;;;23.02;13.95;;;4.20;58.80;;;;;;6252007;22;20058;-87
2022/03/11 05:40:14;;;;;;;21.13;13.75;;;4.20;58.90;;;;;;6278649;22;20012;-86
2022/03/11 05:42:40;;;;;;;23.77;14.25;;;4.20;58.90;;;;;;6251355;22;20019;-86
2022/03/11 05:45:07;;;;;;;21.52;14.75;;;4.20;58.90;;;;;;6279049;22;20019;-87
2022/03/11 05:47:33;;;;;;;19.70;13.68;;;4.20;59.00;;;;;;6251461;22;20011;-87
2022/03/11 05:49:59;;;;;;;21.63;14.35;;;4.10;59.10;;;;;;6251419;22;20095;-86
2022/03/11 05:52:24;;;;;;;22.77;15.05;;;4.10;59.10;;;;;;6278862;22;20062;-87
2022/03/11 05:54:51;;;;;;;22.23;15.35;;;4.10;59.20;;;;;;6278679;22;20043;-88
2022/03/11 05:57:16;;;;;;;22.90;14.82;;;4.10;59.20;;;;;;6250891;22;20027;-87
2022/03/11 05:59:42;;;;;;;22.63;14.30;;;4.10;59.20;;;;;;6251045;22;20015;-86
2022/03/11 06:02:08;;;;;;;21.65;14.75;;;4.00;59.30;;;;;;6278389;22;20012;-88
2022/03/11 06:04:34;;;;;;;24.95;14.80;;;4.00;59.40;;;;;;6278796;22;20023;-87
2022/03/11 06:07:00;;;;;;;23.52;14.02;;;4.00;59.40;;;;;;6250745;22;20012;-87
2022/03/11 06:09:25;;;;;;;24.10;15.30;;;4.00;59.50;;;;;;6250997;22;20019;-87
2022/03/11 06:11:53;;;;;;;23.92;15.05;;;4.00;59.50;;;;;;6277945;22;20018;-87
2022/03/11 06:14:19;;;;;;;22.48;15.45;;;4.00;59.50;;;;;;6278471;22;20015;-86
2022/03/11 06:16:44;;;;;;;22.35;15.05;;;4.00;59.70;;;;;;6278828;22;20066;-87
2022/03/11 06:19:11;;;;;;;23.38;15.30;;;4.00;59.60;;;;;;6251777;22;20440;-86
2022/03/11 06:21:37;;;;;;;26.45;16.23;;;3.90;59.80;;;;;;6278476;22;20024;-86
2022/03/11 06:24:03;;;;;;;19.80;14.75;;;3.90;59.80;;;;;;6278278;22;20383;-86
2022/03/11 06:26:28;;;;;;;23.85;15.38;;;3.90;59.80;;;;;;6278021;22;20012;-86
2022/03/11 06:28:54;;;;;;;24.35;16.15;;;3.90;59.90;;;;;;6278490;22;20024;-87
2022/03/11 06:31:20;;;;;;;24.75;16.08;;;3.90;59.90;;;;;;6253802;22;20012;-86
2022/03/11 06:33:45;;;;;;;25.63;15.85;;;3.90;59.90;;;;;;6229346;22;20020;-86
2022/03/11 06:36:11;;;;;;;22.83;15.18;;;3.90;59.90;;;;;;6255030;22;20077;-86
2022/03/11 06:38:37;;;;;;;26.50;16.00;;;3.90;59.90;;;;;;6278761;22;20019;-87
2022/03/11 06:41:03;;;;;;;24.27;15.93;;;3.90;60.00;;;;;;6250820;22;20047;-87
2022/03/11 06:43:28;;;;;;;26.02;17.08;;;3.90;60.40;;;;;;6278625;22;20091;-86
2022/03/11 06:45:54;;;;;;;26.15;16.30;;;3.90;60.10;;;;;;6278691;22;20403;-86
2022/03/11 06:48:21;;;;;;;24.25;16.02;;;3.90;60.20;;;;;;6250934;22;20019;-87
2022/03/11 06:50:48;;;;;;;25.47;16.27;;;4.00;60.10;;;;;;6252668;22;20015;-88
2022/03/11 06:53:14;;;;;;;26.30;15.85;;;3.90;60.00;;;;;;6251300;22;20513;-87
2022/03/11 06:55:40;;;;;;;24.35;15.95;;;3.90;59.90;;;;;;6278785;22;20327;-87
2022/03/11 06:58:05;;;;;;;25.13;16.55;;;4.00;60.00;;;;;;6278623;22;20051;-88
2022/03/11 07:00:31;;;;;;;25.45;15.77;;;4.00;59.90;;;;;;6278591;22;20086;-87
2022/03/11 07:02:58;;;;;;;25.98;16.70;;;4.00;59.80;;;;;;6276083;22;20023;-87
2022/03/11 07:05:24;;;;;;;24.90;16.67;;;4.00;59.80;;;;;;6250900;22;20016;-88
2022/03/11 07:07:50;;;;;;;25.33;16.13;;;4.10;59.70;;;;;;6251058;22;20041;-88
2022/03/11 07:10:16;;;;;;;26.50;17.00;;;4.10;59.60;;;;;;6278291;22;20016;-86
2022/03/11 07:12:42;;;;;;;22.63;15.32;;;4.20;59.50;;;;;;6277796;22;20053;-87
2022/03/11 07:15:09;;;;;;;26.45;16.98;;;4.20;59.40;;;;;;6278312;22;20012;-87
2022/03/11 07:17:35;;;;;;;24.17;14.77;;;4.20;59.40;;;;;;6250960;22;20027;-87
2022/03/11 07:20:03;;;;;;;25.02;16.58;;;4.30;59.30;;;;;;6251012;22;20021;-87
2022/03/11 07:22:31;;;;;;;24.52;15.63;;;4.30;59.30;;;;;;6250492;22;20012;-87
2022/03/11 07:24:58;;;;;;;23.80;15.77;;;4.40;59.30;;;;;;6250879;22;20069;-88
2022/03/11 07:27:24;;;;;;;24.20;15.88;;;4.40;59.10;;;;;;6277597;22;20014;-87
2022/03/11 07:29:50;;;;;;;26.75;17.30;;;4.50;59.10;;;;;;6278157;22;20028;-86
2022/03/11 07:32:17;;;;;;;24.58;16.75;;;4.50;58.90;;;;;;6277585;22;20026;-86
2022/03/11 07:34:43;;;;;;;26.60;15.93;;;4.60;58.80;;;;;;6277584;22;20332;-85
2022/03/11 07:37:12;;;;;;;26.60;17.15;;;4.60;58.60;;;;;;6250324;22;20111;-89
2022/03/11 07:39:41;;;;;;;23.80;16.30;;;4.70;58.50;;;;;;6277444;22;20007;-86
2022/03/11 07:42:07;;;;;;;24.73;15.77;;;4.80;58.40;;;;;;6277581;22;20019;-87
2022/03/11 07:44:33;;;;;;;27.63;17.45;;;4.80;58.10;;;;;;6249715;22;20023;-87
2022/03/11 07:46:59;;;;;;;25.27;17.27;;;4.90;57.90;;;;;;6277178;22;20058;-86
2022/03/11 07:49:27;;;;;;;24.40;16.27;;;5.10;57.90;;;;;;6277697;22;20336;-86
2022/03/11 07:51:53;;;;;;;26.58;15.95;;;5.10;57.70;;;;;;6247968;22;20135;-86
2022/03/11 07:54:19;;;;;;;26.02;16.27;;;5.20;57.60;;;;;;6277885;22;20043;-86
2022/03/11 07:56:45;;;;;;;22.88;15.85;;;5.20;57.40;;;;;;6276850;22;20012;-86
2022/03/11 07:59:10;;;;;;;23.95;16.02;;;5.30;57.20;;;;;;6250202;22;20016;-87
2022/03/11 08:01:36;;;;;;;26.92;17.08;;;5.40;57.00;;;;;;6277586;22;20343;-85
2022/03/11 08:04:04;;;;;;;22.35;14.93;;;5.50;57.20;;;;;;6250203;22;20380;-86
2022/03/11 08:06:30;;;;;;;24.02;16.15;;;5.60;56.50;;;;;;6277906;22;20016;-87
2022/03/11 08:08:56;;;;;;;22.60;15.52;;;5.70;56.20;;;;;;6277527;22;20149;-86
2022/03/11 08:11:22;;;;;;;23.48;16.27;;;5.80;56.00;;;;;;6275526;22;20127;-86
2022/03/11 08:13:48;;;;;;;22.48;15.15;;;5.90;55.80;;;;;;6277104;22;20066;-86
2022/03/11 08:16:15;;;;;;;22.63;15.77;;;6.00;55.60;;;;;;6277692;22;20012;-85
2022/03/11 08:18:42;;;;;;;23.58;15.65;;;6.20;55.40;;;;;;6278323;22;20046;-85
2022/03/11 08:21:08;;;;;;;24.50;16.33;;;6.30;54.70;;;;;;6277698;22;20086;-85
2022/03/11 08:23:33;;;;;;;24.98;16.08;;;6.50;54.50;;;;;;6251613;22;20016;-88
2022/03/11 08:25:59;;;;;;;23.50;16.95;;;6.60;54.20;;;;;;6251841;22;20019;-86
2022/03/11 08:28:25;;;;;;;25.73;16.52;;;6.70;53.80;;;;;;6250023;22;20023;-86
2022/03/11 08:30:51;;;;;;;24.20;16.08;;;6.80;53.40;;;;;;6252849;22;20026;-89
2022/03/11 08:33:22;;;;;;;21.80;14.68;;;6.90;53.40;;;;;;6253339;22;20043;-86
2022/03/11 08:35:49;;;;;;;22.33;17.15;;;7.00;52.90;;;;;;6279951;22;20022;-88
2022/03/11 08:38:15;;;;;;;21.90;15.60;;;7.20;52.40;;;;;;6252380;22;20012;-87
2022/03/11 08:40:41;;;;;;;20.98;15.73;;;7.40;52.70;;;;;;6252531;22;20023;-87
2022/03/11 08:43:07;;;;;;;22.52;15.55;;;7.40;51.50;;;;;;6252401;22;20023;-88
2022/03/11 08:45:33;;;;;;;22.13;14.40;;;7.50;51.80;;;;;;6252296;22;20012;-87
2022/03/11 08:47:59;;;;;;;20.63;13.93;;;7.60;51.40;;;;;;6279926;22;20027;-89
2022/03/11 08:50:26;;;;;;;25.52;16.15;;;7.70;51.10;;;;;;6280505;22;20014;-88
2022/03/11 08:52:52;;;;;;;23.85;15.68;;;7.90;51.10;;;;;;6252768;22;20062;-86
2022/03/11 08:55:18;;;;;;;21.40;14.95;;;7.90;50.80;;;;;;6252577;22;20054;-87
2022/03/11 08:58:30;;;;;;;20.80;14.15;;;8.00;50.20;;;;;;6279267;22;20016;-88
2022/03/11 09:00:56;;;;;;;21.98;15.57;;;8.10;49.80;;;;;;6251994;22;20455;-86
2022/03/11 09:03:22;;;;;;;21.88;15.30;;;8.20;49.60;;;;;;6252123;22;20020;-86
2022/03/11 09:05:48;;;;;;;22.15;15.32;;;8.20;49.30;;;;;;6279240;22;20019;-87
2022/03/11 09:08:13;;;;;;;21.38;15.05;;;8.20;49.30;;;;;;6252230;22;20464;-86
2022/03/11 09:10:39;;;;;;;22.70;16.08;;;8.30;49.00;;;;;;6279276;22;20018;-88
2022/03/11 09:13:05;;;;;;;21.40;15.32;;;8.40;49.20;;;;;;6252121;22;20024;-87
2022/03/11 09:15:31;;;;;;;20.33;15.15;;;8.50;49.00;;;;;;6279325;22;20008;-88
2022/03/11 09:17:57;;;;;;;22.05;15.10;;;8.60;48.90;;;;;;6252413;22;20023;-86
2022/03/11 09:20:23;;;;;;;20.52;14.52;;;8.60;48.90;;;;;;6251822;22;20022;-87
2022/03/11 09:22:49;;;;;;;22.58;16.05;;;8.70;48.30;;;;;;6279541;22;20016;-86
2022/03/11 09:25:18;;;;;;;24.17;16.15;;;8.80;48.60;;;;;;6251763;22;20019;-87
2022/03/11 09:27:44;;;;;;;21.77;14.80;;;8.80;48.70;;;;;;6278990;22;20452;-88
2022/03/11 09:30:11;;;;;;;22.08;15.27;;;8.90;48.20;;;;;;6251802;22;20042;-86
2022/03/11 09:32:39;;;;;;;20.67;15.27;;;9.00;47.70;;;;;;6251849;22;20047;-86
2022/03/11 09:35:06;;;;;;;24.08;16.30;;;9.20;47.30;;;;;;6278894;22;20022;-88
2022/03/11 09:37:32;;;;;;;21.95;15.90;;;9.10;47.40;;;;;;6279221;22;20091;-88
2022/03/11 09:39:58;;;;;;;20.58;15.68;;;9.20;47.40;;;;;;6278722;22;20046;-85
2022/03/11 09:42:24;;;;;;;22.75;16.52;;;9.20;47.80;;;;;;6251650;22;20065;-86
2022/03/11 09:44:54;;;;;;;22.58;15.90;;;9.20;47.90;;;;;;6278745;22;20110;-86
2022/03/11 09:47:21;;;;;;;21.52;15.52;;;9.40;46.90;;;;;;6277493;22;20000;-87
2022/03/11 09:49:48;;;;;;;21.92;16.30;;;9.40;47.00;;;;;;6277712;22;20031;-86
2022/03/11 09:52:19;;;;;;;22.08;15.23;;;9.40;46.80;;;;;;6289864;22;20011;-87
2022/03/11 09:54:46;;;;;;;24.73;15.80;;;9.40;46.60;;;;;;6279757;22;20061;-86
2022/03/11 09:57:22;;;;;;;24.13;16.30;;;9.50;46.50;;;;;;6278998;22;20462;-87
2022/03/11 09:59:47;;;;;;;24.67;16.98;;;9.60;46.50;;;;;;6277548;22;20016;-88
2022/03/11 10:02:15;;;;;;;22.58;15.82;;;9.60;45.90;;;;;;6279116;22;20022;-87
2022/03/11 10:04:52;;;;;;;25.90;16.92;;;9.80;46.30;;;;;;6226438;22;20019;-87
2022/03/11 10:07:25;;;;;;;19.35;14.90;;;9.70;46.00;;;;;;6251790;22;20016;-88
2022/03/11 10:09:52;;;;;;;21.75;15.57;;;9.80;46.00;;;;;;6278728;22;20016;-87
2022/03/11 10:12:23;;;;;;;19.27;14.90;;;9.90;45.20;;;;;;6278854;22;20015;-88
2022/03/11 10:15:03;;;;;;;21.85;16.45;;;10.00;44.10;;;;;;6251403;22;20016;-86
2022/03/11 10:17:37;;;;;;;23.35;16.33;;;10.00;44.70;;;;;;6278599;22;20020;-85
2022/03/11 10:20:11;;;;;;;22.70;16.23;;;10.10;44.90;;;;;;6278221;22;20444;-85
2022/03/11 10:22:40;;;;;;;21.52;16.13;;;10.10;44.50;;;;;;6250992;22;20016;-87
2022/03/11 10:25:12;;;;;;;25.60;15.50;;;10.20;44.70;;;;;;6226352;22;20386;-88
2022/03/11 10:27:55;;;;;;;22.92;15.85;;;10.30;44.30;;;;;;6277969;22;20023;-86
2022/03/11 10:30:20;;;;;;;22.60;15.60;;;10.40;43.70;;;;;;6251384;22;20024;-85
2022/03/11 10:33:11;;;;;;;24.33;16.15;;;10.50;43.50;;;;;;6250993;22;20509;-87
2022/03/11 10:35:45;;;;;;;21.42;15.55;;;10.60;42.40;;;;;;6129793;23;20021;-86
2022/03/11 10:38:26;;;;;;;18.85;14.10;;;10.60;41.90;;;;;;6130166;23;20021;-87
2022/03/11 10:40:54;;;;;;;18.65;14.90;;;10.70;41.70;;;;;;6130019;23;20020;-87
2022/03/11 10:43:23;;;;;;;19.77;14.07;;;10.70;41.70;;;;;;6154636;23;20021;-86
2022/03/11 10:45:53;;;;;;;21.40;15.05;;;10.80;41.60;;;;;;6154658;23;20048;-86
2022/03/11 10:48:40;;;;;;;21.88;15.45;;;10.90;41.30;;;;;;6155166;23;20056;-88
2022/03/11 10:51:26;;;;;;;23.13;15.05;;;10.90;40.80;;;;;;6130000;23;20053;-86
2022/03/11 10:53:52;;;;;;;20.45;15.70;;;11.00;40.70;;;;;;6130145;23;20018;-86
2022/03/11 10:56:33;;;;;;;20.10;14.45;;;11.10;40.40;;;;;;6130139;23;20025;-87
2022/03/11 10:58:59;;;;;;;20.48;14.27;;;11.10;40.30;;;;;;6130335;23;20473;-86
2022/03/11 11:01:35;;;;;;;21.88;15.35;;;11.10;39.80;;;;;;6154433;23;20101;-85
2022/03/11 11:04:03;;;;;;;21.75;15.73;;;11.20;39.70;;;;;;6154769;23;20021;-87
2022/03/11 11:06:29;;;;;;;20.75;15.20;;;11.20;39.90;;;;;;6129689;23;20039;-86
2022/03/11 11:08:55;;;;;;;20.83;15.45;;;11.20;39.80;;;;;;6129647;23;20096;-86
2022/03/11 11:11:22;;;;;;;22.73;16.00;;;11.30;40.20;;;;;;6130051;22;20017;-86
2022/03/11 11:13:49;;;;;;;19.63;15.32;;;11.30;39.30;;;;;;6278293;22;20015;-86
2022/03/11 11:16:17;;;;;;;20.58;15.48;;;11.30;39.80;;;;;;6250353;22;20059;-86
2022/03/11 11:18:46;;;;;;;21.63;14.20;;;11.30;39.80;;;;;;6277782;22;20444;-86
2022/03/11 11:21:15;;;;;;;20.65;15.48;;;11.40;39.20;;;;;;6278264;22;20440;-85
2022/03/11 11:23:40;;;;;;;23.33;16.13;;;11.40;39.20;;;;;;6249879;22;20020;-85
2022/03/11 11:26:10;;;;;;;22.80;15.70;;;11.40;39.50;;;;;;6250394;22;20016;-86
2022/03/11 11:28:37;;;;;;;23.00;16.60;;;11.40;39.90;;;;;;6250183;22;20098;-86
2022/03/11 11:31:03;;;;;;;21.13;16.08;;;11.50;40.50;;;;;;6250621;22;20012;-86
2022/03/11 11:33:29;;;;;;;21.40;15.77;;;11.50;39.90;;;;;;6250663;22;20098;-87
2022/03/11 11:36:02;;;;;;;25.60;16.17;;;11.50;39.90;;;;;;6278307;22;20447;-87
2022/03/11 11:38:32;;;;;;;23.80;16.65;;;11.50;39.90;;;;;;6277630;22;20051;-86
2022/03/11 11:40:59;;;;;;;21.98;16.48;;;11.50;40.10;;;;;;6277654;22;20016;-86
2022/03/11 11:43:30;;;;;;;21.75;16.90;;;11.60;40.40;;;;;;6277471;22;20062;-87
2022/03/11 11:45:58;;;;;;;20.40;16.77;;;11.50;40.20;;;;;;6277990;22;20012;-87
2022/03/11 11:48:41;;;;;;;23.75;17.73;;;11.50;40.80;;;;;;6250571;22;20020;-87
2022/03/11 11:51:08;;;;;;;25.90;16.45;;;11.60;40.40;;;;;;6278077;22;20020;-86
2022/03/11 11:53:42;;;;;;;21.55;16.88;;;11.60;40.60;;;;;;6277985;22;20043;-87
2022/03/11 11:56:29;;;;;;;22.52;16.17;;;11.70;40.00;;;;;;6278296;22;20319;-87
2022/03/11 11:59:08;;;;;;;21.63;16.30;;;11.70;40.00;;;;;;6250555;22;20016;-87
2022/03/11 12:01:39;;;;;;;25.85;17.33;;;11.70;40.30;;;;;;6250766;22;20055;-86
2022/03/11 12:04:24;;;;;;;24.95;16.73;;;11.80;40.00;;;;;;6280048;22;20029;-87
2022/03/11 12:06:56;;;;;;;23.25;16.88;;;11.80;39.40;;;;;;6281243;22;20063;-85
2022/03/11 12:09:40;;;;;;;22.58;15.80;;;11.80;39.70;;;;;;6252808;22;20042;-87
2022/03/11 12:12:09;;;;;;;25.35;16.67;;;11.80;39.70;;;;;;6280163;22;20336;-86
2022/03/11 12:14:57;;;;;;;22.13;15.77;;;11.80;39.60;;;;;;6280064;22;20019;-86
2022/03/11 12:17:42;;;;;;;21.90;16.75;;;11.90;39.70;;;;;;6279956;22;20016;-86
2022/03/11 12:20:23;;;;;;;24.67;16.85;;;11.80;39.50;;;;;;6280005;22;20066;-86
2022/03/11 12:22:57;;;;;;;21.30;16.98;;;11.90;39.30;;;;;;6252296;22;20317;-86
2022/03/11 12:25:34;;;;;;;24.27;17.55;;;11.90;39.30;;;;;;6278117;22;20065;-86
2022/03/11 12:28:25;;;;;;;22.98;17.58;;;11.80;39.70;;;;;;6279008;22;20465;-86
2022/03/11 12:30:50;;;;;;;19.98;15.65;;;11.80;39.70;;;;;;6279942;22;20051;-86
2022/03/11 12:33:22;;;;;;;22.30;17.35;;;11.90;40.00;;;;;;6278403;22;20024;-86
2022/03/11 12:35:52;;;;;;;20.55;15.50;;;11.90;40.70;;;;;;6280199;22;20095;-87
2022/03/11 12:38:20;;;;;;;21.40;16.67;;;12.00;40.00;;;;;;6280554;22;20027;-87